SAS2344 EDDH-ESSA
Flight info
| Callsign | SAS2344 |
|---|---|
| Flight time | 1h 14m |
| Altitude | 35000 |
| Route | LUGEG3G LUGEG P605 MEGAR DCT KUBIS DCT MIKNA N851 PELUP Z226 NILUG |
| Aircraft | A321/M-SDE3FGHIRWY/LB1 |
Departure
| Time | 2026-05-04 19:49 |
|---|---|
| Airport | Hamburg Helmut Schmidt Airport (EDDH) |
Arrival
| Time | 2026-05-04 21:03 |
|---|---|
| Airport | Stockholm-Arlanda Airport (ESSA) |
| Time | Latitude | Longitude | Altitude | Speed | Heading |
|---|---|---|---|---|---|
| 2026-05-04 19:16 | 53.62805 | 10.00234 | 48 ft | 0 kts | 62° |
| 2026-05-04 19:38 | 53.62796 | 10.00204 | 43 ft | 4 kts | 61° |
| 2026-05-04 19:38 | 53.62783 | 10.00164 | 42 ft | 4 kts | 72° |
| 2026-05-04 19:39 | 53.62780 | 10.00131 | 46 ft | 4 kts | 134° |
| 2026-05-04 19:39 | 53.62783 | 10.00125 | 42 ft | 0 kts | 153° |
| 2026-05-04 19:40 | 53.62783 | 10.00124 | 42 ft | 0 kts | 153° |
| 2026-05-04 19:42 | 53.62783 | 10.00125 | 42 ft | 0 kts | 153° |
| 2026-05-04 19:42 | 53.62776 | 10.00131 | 46 ft | 2 kts | 153° |
| 2026-05-04 19:42 | 53.62759 | 10.00145 | 45 ft | 4 kts | 153° |
| 2026-05-04 19:42 | 53.62727 | 10.00173 | 48 ft | 7 kts | 153° |
| 2026-05-04 19:43 | 53.62675 | 10.00218 | 48 ft | 10 kts | 153° |
| 2026-05-04 19:43 | 53.62633 | 10.00255 | 48 ft | 11 kts | 152° |
| 2026-05-04 19:43 | 53.62607 | 10.00266 | 48 ft | 1 kts | 182° |
| 2026-05-04 19:43 | 53.62594 | 10.00263 | 48 ft | 1 kts | 195° |
| 2026-05-04 19:44 | 53.62594 | 10.00262 | 48 ft | 0 kts | 199° |
| 2026-05-04 19:46 | 53.62592 | 10.00260 | 48 ft | 1 kts | 204° |
| 2026-05-04 19:47 | 53.62576 | 10.00228 | 45 ft | 6 kts | 239° |
| 2026-05-04 19:47 | 53.62548 | 10.00134 | 46 ft | 12 kts | 243° |
| 2026-05-04 19:47 | 53.62543 | 10.00028 | 45 ft | 1 kts | 334° |
| 2026-05-04 19:47 | 53.62544 | 10.00027 | 45 ft | 0 kts | 333° |
| 2026-05-04 19:48 | 53.62545 | 10.00026 | 46 ft | 2 kts | 333° |
| 2026-05-04 19:48 | 53.62616 | 9.99964 | 47 ft | 39 kts | 332° |
| 2026-05-04 19:48 | 53.63081 | 9.99562 | 46 ft | 109 kts | 333° |
| 2026-05-04 19:48 | 53.63934 | 9.98824 | 48 ft | 164 kts | 332° |
| 2026-05-04 19:49 | 53.64993 | 9.97911 | 602 ft | 170 kts | 333° |
| 2026-05-04 19:49 | 53.66040 | 9.97020 | 1373 ft | 171 kts | 333° |
| 2026-05-04 19:49 | 53.67117 | 9.96093 | 1962 ft | 179 kts | 332° |
| 2026-05-04 19:49 | 53.68296 | 9.95104 | 2265 ft | 200 kts | 336° |
| 2026-05-04 19:50 | 53.69724 | 9.94657 | 2620 ft | 216 kts | 358° |
| 2026-05-04 19:50 | 53.71238 | 9.94687 | 3196 ft | 219 kts | 359° |
| 2026-05-04 19:50 | 53.72741 | 9.95242 | 3809 ft | 227 kts | 22° |
| 2026-05-04 19:50 | 53.74029 | 9.96854 | 4279 ft | 241 kts | 48° |
| 2026-05-04 19:51 | 53.74907 | 9.99398 | 4540 ft | 260 kts | 64° |
| 2026-05-04 19:51 | 53.75702 | 10.02214 | 4903 ft | 274 kts | 64° |
| 2026-05-04 19:51 | 53.76545 | 10.05170 | 5456 ft | 283 kts | 63° |
| 2026-05-04 19:51 | 53.77410 | 10.08190 | 6117 ft | 288 kts | 63° |
| 2026-05-04 19:52 | 53.78279 | 10.11224 | 6775 ft | 292 kts | 63° |
| 2026-05-04 19:52 | 53.79170 | 10.14337 | 7434 ft | 296 kts | 63° |
| 2026-05-04 19:52 | 53.80069 | 10.17485 | 8103 ft | 299 kts | 63° |
| 2026-05-04 19:52 | 53.80982 | 10.20678 | 8775 ft | 303 kts | 63° |
| 2026-05-04 19:53 | 53.81905 | 10.23897 | 9453 ft | 306 kts | 63° |
| 2026-05-04 19:53 | 53.82840 | 10.27162 | 10091 ft | 310 kts | 63° |
| 2026-05-04 19:53 | 53.83805 | 10.30534 | 10317 ft | 330 kts | 63° |
| 2026-05-04 19:53 | 53.84839 | 10.34145 | 10435 ft | 350 kts | 63° |
| 2026-05-04 19:54 | 53.85920 | 10.37928 | 10758 ft | 362 kts | 63° |
| 2026-05-04 19:54 | 53.87020 | 10.41795 | 11311 ft | 366 kts | 63° |
| 2026-05-04 19:54 | 53.88127 | 10.45698 | 11894 ft | 370 kts | 63° |
| 2026-05-04 19:54 | 53.89247 | 10.49649 | 12481 ft | 373 kts | 63° |
| 2026-05-04 19:55 | 53.90361 | 10.53572 | 13056 ft | 376 kts | 63° |
| 2026-05-04 19:55 | 53.91496 | 10.57583 | 13634 ft | 379 kts | 63° |
| 2026-05-04 19:55 | 53.92639 | 10.61641 | 14168 ft | 382 kts | 64° |
| 2026-05-04 19:55 | 53.93864 | 10.65659 | 14660 ft | 385 kts | 57° |
| 2026-05-04 19:56 | 53.95470 | 10.69305 | 15176 ft | 386 kts | 46° |
| 2026-05-04 19:56 | 53.97315 | 10.72648 | 15679 ft | 389 kts | 45° |
| 2026-05-04 19:56 | 53.99176 | 10.76018 | 16186 ft | 393 kts | 45° |
| 2026-05-04 19:56 | 54.01050 | 10.79424 | 16679 ft | 396 kts | 45° |
| 2026-05-04 19:57 | 54.02935 | 10.82859 | 17162 ft | 399 kts | 45° |
| 2026-05-04 19:57 | 54.04814 | 10.86293 | 17656 ft | 403 kts | 45° |
| 2026-05-04 19:57 | 54.06729 | 10.89801 | 18117 ft | 406 kts | 45° |
| 2026-05-04 19:57 | 54.08659 | 10.93342 | 18545 ft | 410 kts | 45° |
| 2026-05-04 19:58 | 54.10605 | 10.96916 | 18950 ft | 413 kts | 45° |
| 2026-05-04 19:58 | 54.12567 | 11.00523 | 19361 ft | 416 kts | 45° |
| 2026-05-04 19:58 | 54.14538 | 11.04160 | 19760 ft | 420 kts | 45° |
| 2026-05-04 19:58 | 54.16524 | 11.07841 | 20154 ft | 423 kts | 45° |
| 2026-05-04 19:59 | 54.18521 | 11.11557 | 20542 ft | 426 kts | 45° |
| 2026-05-04 19:59 | 54.20531 | 11.15299 | 20917 ft | 429 kts | 45° |
| 2026-05-04 19:59 | 54.22529 | 11.19026 | 21292 ft | 433 kts | 45° |
| 2026-05-04 19:59 | 54.24566 | 11.22832 | 21666 ft | 436 kts | 44° |
| 2026-05-04 20:00 | 54.26616 | 11.26666 | 22030 ft | 439 kts | 44° |
| 2026-05-04 20:00 | 54.28686 | 11.30549 | 22380 ft | 442 kts | 44° |
| 2026-05-04 20:00 | 54.30764 | 11.34460 | 22738 ft | 446 kts | 44° |
| 2026-05-04 20:00 | 54.32852 | 11.38400 | 23080 ft | 449 kts | 44° |
| 2026-05-04 20:01 | 54.34962 | 11.42383 | 23442 ft | 452 kts | 44° |
| 2026-05-04 20:01 | 54.37081 | 11.46383 | 23761 ft | 455 kts | 44° |
| 2026-05-04 20:01 | 54.39219 | 11.50416 | 24082 ft | 457 kts | 44° |
| 2026-05-04 20:01 | 54.41366 | 11.54464 | 24395 ft | 460 kts | 44° |
| 2026-05-04 20:02 | 54.43494 | 11.58475 | 24715 ft | 462 kts | 44° |
| 2026-05-04 20:02 | 54.45684 | 11.62526 | 25016 ft | 463 kts | 40° |
| 2026-05-04 20:02 | 54.48121 | 11.66112 | 25303 ft | 460 kts | 31° |
| 2026-05-04 20:02 | 54.50791 | 11.69115 | 25611 ft | 459 kts | 26° |
| 2026-05-04 20:03 | 54.53505 | 11.72033 | 25913 ft | 462 kts | 26° |
| 2026-05-04 20:03 | 54.56234 | 11.74978 | 26205 ft | 464 kts | 27° |
| 2026-05-04 20:03 | 54.58977 | 11.77949 | 26504 ft | 467 kts | 27° |
| 2026-05-04 20:03 | 54.61730 | 11.80945 | 26802 ft | 469 kts | 27° |
| 2026-05-04 20:04 | 54.64493 | 11.83963 | 27087 ft | 471 kts | 27° |
| 2026-05-04 20:04 | 54.67265 | 11.87000 | 27365 ft | 474 kts | 27° |
| 2026-05-04 20:04 | 54.70021 | 11.90023 | 27648 ft | 477 kts | 27° |
| 2026-05-04 20:04 | 54.72832 | 11.93104 | 27936 ft | 479 kts | 27° |
| 2026-05-04 20:05 | 54.75655 | 11.96202 | 28227 ft | 482 kts | 27° |
| 2026-05-04 20:05 | 54.78490 | 11.99314 | 28510 ft | 484 kts | 26° |
| 2026-05-04 20:05 | 54.81340 | 12.02447 | 28783 ft | 486 kts | 26° |
| 2026-05-04 20:05 | 54.84205 | 12.05603 | 29046 ft | 489 kts | 26° |
| 2026-05-04 20:06 | 54.87083 | 12.08774 | 29302 ft | 492 kts | 26° |
| 2026-05-04 20:06 | 54.89975 | 12.11971 | 29587 ft | 494 kts | 26° |
| 2026-05-04 20:06 | 54.92878 | 12.15193 | 29857 ft | 496 kts | 26° |
| 2026-05-04 20:06 | 54.95747 | 12.18383 | 30090 ft | 497 kts | 26° |
| 2026-05-04 20:07 | 54.98663 | 12.21630 | 30320 ft | 498 kts | 27° |
| 2026-05-04 20:07 | 55.01520 | 12.24812 | 30555 ft | 499 kts | 27° |
| 2026-05-04 20:07 | 55.04439 | 12.28073 | 30836 ft | 498 kts | 27° |
| 2026-05-04 20:07 | 55.07345 | 12.31331 | 31188 ft | 495 kts | 27° |
| 2026-05-04 20:08 | 55.10227 | 12.34568 | 31538 ft | 492 kts | 27° |
| 2026-05-04 20:08 | 55.13103 | 12.37802 | 31882 ft | 490 kts | 28° |
| 2026-05-04 20:08 | 55.15956 | 12.41012 | 32250 ft | 486 kts | 28° |
| 2026-05-04 20:08 | 55.18796 | 12.44208 | 32594 ft | 484 kts | 28° |
| 2026-05-04 20:09 | 55.21578 | 12.47346 | 32943 ft | 481 kts | 28° |
| 2026-05-04 20:09 | 55.24371 | 12.50531 | 33285 ft | 478 kts | 29° |
| 2026-05-04 20:09 | 55.27134 | 12.53753 | 33624 ft | 476 kts | 30° |
| 2026-05-04 20:09 | 55.29876 | 12.56997 | 33947 ft | 474 kts | 30° |
| 2026-05-04 20:10 | 55.32601 | 12.60242 | 34216 ft | 472 kts | 31° |
| 2026-05-04 20:10 | 55.35312 | 12.63475 | 34434 ft | 471 kts | 30° |
| 2026-05-04 20:10 | 55.38024 | 12.66706 | 34644 ft | 471 kts | 31° |
| 2026-05-04 20:10 | 55.40735 | 12.69930 | 34847 ft | 470 kts | 30° |
| 2026-05-04 20:11 | 55.43447 | 12.73154 | 34952 ft | 469 kts | 30° |
| 2026-05-04 20:11 | 55.48799 | 12.79522 | 34972 ft | 466 kts | 31° |
| 2026-05-04 20:12 | 55.54161 | 12.85924 | 34971 ft | 465 kts | 31° |
| 2026-05-04 20:12 | 55.59506 | 12.92341 | 34971 ft | 464 kts | 31° |
| 2026-05-04 20:13 | 55.64846 | 12.98761 | 34969 ft | 464 kts | 31° |
| 2026-05-04 20:13 | 55.70143 | 13.05162 | 34969 ft | 464 kts | 31° |
| 2026-05-04 20:14 | 55.75479 | 13.11630 | 34968 ft | 465 kts | 31° |
| 2026-05-04 20:14 | 55.80815 | 13.18102 | 34975 ft | 465 kts | 31° |
| 2026-05-04 20:15 | 55.86150 | 13.24598 | 34979 ft | 464 kts | 31° |
| 2026-05-04 20:15 | 55.91430 | 13.31074 | 34978 ft | 464 kts | 31° |
| 2026-05-04 20:16 | 55.96743 | 13.37615 | 34975 ft | 464 kts | 31° |
| 2026-05-04 20:16 | 56.02053 | 13.44161 | 34974 ft | 463 kts | 31° |
| 2026-05-04 20:17 | 56.07361 | 13.50707 | 34972 ft | 463 kts | 31° |
| 2026-05-04 20:17 | 56.12664 | 13.57272 | 34971 ft | 463 kts | 31° |
| 2026-05-04 20:18 | 56.17925 | 13.63819 | 34969 ft | 464 kts | 31° |
| 2026-05-04 20:18 | 56.23223 | 13.70446 | 34967 ft | 464 kts | 31° |
| 2026-05-04 20:19 | 56.28520 | 13.77089 | 34961 ft | 464 kts | 31° |
| 2026-05-04 20:19 | 56.33809 | 13.83740 | 34956 ft | 464 kts | 31° |
| 2026-05-04 20:20 | 56.39062 | 13.90375 | 34957 ft | 464 kts | 31° |
| 2026-05-04 20:20 | 56.44353 | 13.97081 | 34953 ft | 465 kts | 31° |
| 2026-05-04 20:21 | 56.49643 | 14.03806 | 34951 ft | 465 kts | 31° |
| 2026-05-04 20:21 | 56.57588 | 14.13941 | 34945 ft | 466 kts | 31° |
| 2026-05-04 20:22 | 56.62853 | 14.20681 | 34941 ft | 466 kts | 31° |
| 2026-05-04 20:22 | 56.68147 | 14.27506 | 34935 ft | 467 kts | 31° |
| 2026-05-04 20:23 | 56.73446 | 14.34345 | 34930 ft | 467 kts | 31° |
| 2026-05-04 20:23 | 56.78714 | 14.41166 | 34919 ft | 468 kts | 31° |
| 2026-05-04 20:24 | 56.84018 | 14.48058 | 34913 ft | 468 kts | 31° |
| 2026-05-04 20:24 | 56.89325 | 14.54982 | 34914 ft | 469 kts | 31° |
| 2026-05-04 20:25 | 56.94636 | 14.61931 | 34910 ft | 470 kts | 31° |
| 2026-05-04 20:25 | 56.99911 | 14.68871 | 34912 ft | 470 kts | 31° |
| 2026-05-04 20:26 | 57.05226 | 14.75884 | 34915 ft | 470 kts | 31° |
| 2026-05-04 20:26 | 57.10537 | 14.82900 | 34918 ft | 471 kts | 31° |
| 2026-05-04 20:27 | 57.15850 | 14.89964 | 34917 ft | 471 kts | 31° |
| 2026-05-04 20:27 | 57.21156 | 14.97046 | 34913 ft | 471 kts | 31° |
| 2026-05-04 20:28 | 57.26433 | 15.04100 | 34906 ft | 472 kts | 31° |
| 2026-05-04 20:28 | 57.31744 | 15.11218 | 34902 ft | 472 kts | 31° |
| 2026-05-04 20:29 | 57.37060 | 15.18373 | 34899 ft | 472 kts | 31° |
| 2026-05-04 20:29 | 57.42377 | 15.25557 | 34902 ft | 473 kts | 31° |
| 2026-05-04 20:30 | 57.47648 | 15.32726 | 34898 ft | 473 kts | 31° |
| 2026-05-04 20:30 | 57.52949 | 15.39973 | 34891 ft | 473 kts | 31° |
| 2026-05-04 20:31 | 57.58257 | 15.47243 | 34883 ft | 473 kts | 31° |
| 2026-05-04 20:31 | 57.63567 | 15.54508 | 34881 ft | 474 kts | 31° |
| 2026-05-04 20:32 | 57.68836 | 15.61752 | 34876 ft | 474 kts | 31° |
| 2026-05-04 20:32 | 57.74139 | 15.69087 | 34869 ft | 474 kts | 31° |
| 2026-05-04 20:33 | 57.79442 | 15.76462 | 34869 ft | 475 kts | 31° |
| 2026-05-04 20:33 | 57.84741 | 15.83851 | 34861 ft | 475 kts | 31° |
| 2026-05-04 20:34 | 57.90010 | 15.91223 | 34863 ft | 475 kts | 31° |
| 2026-05-04 20:34 | 57.95271 | 15.98777 | 34864 ft | 477 kts | 33° |
| 2026-05-04 20:35 | 58.00468 | 16.06552 | 34552 ft | 478 kts | 33° |
| 2026-05-04 20:35 | 58.03074 | 16.10477 | 33880 ft | 480 kts | 33° |
| 2026-05-04 20:35 | 58.05678 | 16.14398 | 33331 ft | 476 kts | 33° |
| 2026-05-04 20:36 | 58.08259 | 16.18276 | 32815 ft | 472 kts | 33° |
| 2026-05-04 20:36 | 58.10821 | 16.22113 | 32286 ft | 469 kts | 32° |
| 2026-05-04 20:36 | 58.13339 | 16.25882 | 31765 ft | 466 kts | 32° |
| 2026-05-04 20:36 | 58.15873 | 16.29677 | 31243 ft | 463 kts | 33° |
| 2026-05-04 20:37 | 58.18390 | 16.33452 | 30727 ft | 460 kts | 33° |
| 2026-05-04 20:37 | 58.20889 | 16.37210 | 30217 ft | 457 kts | 33° |
| 2026-05-04 20:37 | 58.23370 | 16.40956 | 29681 ft | 455 kts | 33° |
| 2026-05-04 20:37 | 58.25832 | 16.44686 | 29167 ft | 450 kts | 33° |
| 2026-05-04 20:38 | 58.28135 | 16.48707 | 28681 ft | 451 kts | 43° |
| 2026-05-04 20:38 | 58.30085 | 16.53381 | 28239 ft | 449 kts | 49° |
| 2026-05-04 20:38 | 58.31929 | 16.58127 | 27796 ft | 444 kts | 49° |
| 2026-05-04 20:38 | 58.33738 | 16.62761 | 27378 ft | 440 kts | 49° |
| 2026-05-04 20:39 | 58.35554 | 16.67408 | 26951 ft | 435 kts | 49° |
| 2026-05-04 20:39 | 58.37352 | 16.72006 | 26544 ft | 431 kts | 49° |
| 2026-05-04 20:39 | 58.39129 | 16.76560 | 26131 ft | 426 kts | 49° |
| 2026-05-04 20:39 | 58.40888 | 16.81082 | 25744 ft | 422 kts | 49° |
| 2026-05-04 20:40 | 58.42627 | 16.85567 | 25324 ft | 419 kts | 49° |
| 2026-05-04 20:40 | 58.44351 | 16.90028 | 24908 ft | 416 kts | 49° |
| 2026-05-04 20:40 | 58.46057 | 16.94455 | 24483 ft | 413 kts | 49° |
| 2026-05-04 20:40 | 58.47751 | 16.98867 | 24059 ft | 410 kts | 48° |
| 2026-05-04 20:41 | 58.49434 | 17.03253 | 23639 ft | 408 kts | 48° |
| 2026-05-04 20:41 | 58.51084 | 17.07549 | 23182 ft | 406 kts | 48° |
| 2026-05-04 20:41 | 58.52749 | 17.11884 | 22730 ft | 402 kts | 48° |
| 2026-05-04 20:41 | 58.54389 | 17.16176 | 22294 ft | 398 kts | 48° |
| 2026-05-04 20:42 | 58.56015 | 17.20444 | 21859 ft | 395 kts | 48° |
| 2026-05-04 20:42 | 58.57628 | 17.24676 | 21426 ft | 391 kts | 48° |
| 2026-05-04 20:42 | 58.59224 | 17.28874 | 20993 ft | 388 kts | 48° |
| 2026-05-04 20:42 | 58.60810 | 17.33051 | 20562 ft | 386 kts | 49° |
| 2026-05-04 20:43 | 58.62381 | 17.37194 | 20135 ft | 383 kts | 49° |
| 2026-05-04 20:43 | 58.63921 | 17.41266 | 19716 ft | 381 kts | 49° |
| 2026-05-04 20:43 | 58.65471 | 17.45369 | 19292 ft | 378 kts | 49° |
| 2026-05-04 20:43 | 58.67009 | 17.49449 | 18869 ft | 376 kts | 49° |
| 2026-05-04 20:44 | 58.68536 | 17.53507 | 18447 ft | 374 kts | 49° |
| 2026-05-04 20:44 | 58.70058 | 17.57556 | 18022 ft | 372 kts | 49° |
| 2026-05-04 20:44 | 58.71569 | 17.61581 | 17562 ft | 370 kts | 49° |
| 2026-05-04 20:44 | 58.73065 | 17.65579 | 17139 ft | 366 kts | 49° |
| 2026-05-04 20:45 | 58.74542 | 17.69535 | 16733 ft | 363 kts | 49° |
| 2026-05-04 20:45 | 58.75988 | 17.73412 | 16302 ft | 360 kts | 50° |
| 2026-05-04 20:45 | 58.77439 | 17.77314 | 15909 ft | 357 kts | 50° |
| 2026-05-04 20:45 | 58.78878 | 17.81188 | 15497 ft | 354 kts | 50° |
| 2026-05-04 20:46 | 58.80329 | 17.85007 | 15099 ft | 350 kts | 45° |
| 2026-05-04 20:46 | 58.82032 | 17.88267 | 14706 ft | 341 kts | 32° |
| 2026-05-04 20:46 | 58.83989 | 17.90731 | 14471 ft | 337 kts | 19° |
| 2026-05-04 20:46 | 58.86115 | 17.92717 | 14212 ft | 342 kts | 18° |
| 2026-05-04 20:47 | 58.88259 | 17.94725 | 13954 ft | 343 kts | 19° |
| 2026-05-04 20:47 | 58.90395 | 17.96747 | 13694 ft | 342 kts | 19° |
| 2026-05-04 20:47 | 58.92500 | 17.98748 | 13424 ft | 341 kts | 19° |
| 2026-05-04 20:47 | 58.94626 | 18.00769 | 13141 ft | 340 kts | 19° |
| 2026-05-04 20:48 | 58.96744 | 18.02784 | 12910 ft | 338 kts | 19° |
| 2026-05-04 20:48 | 58.98852 | 18.04787 | 12645 ft | 336 kts | 19° |
| 2026-05-04 20:48 | 59.00945 | 18.06779 | 12394 ft | 335 kts | 20° |
| 2026-05-04 20:48 | 59.03028 | 18.08764 | 12140 ft | 333 kts | 20° |
| 2026-05-04 20:49 | 59.05102 | 18.10740 | 11887 ft | 331 kts | 20° |
| 2026-05-04 20:49 | 59.07159 | 18.12707 | 11628 ft | 329 kts | 20° |
| 2026-05-04 20:49 | 59.09236 | 18.14463 | 11386 ft | 322 kts | 11° |
| 2026-05-04 20:49 | 59.11362 | 18.15373 | 11151 ft | 313 kts | 359° |
| 2026-05-04 20:50 | 59.13513 | 18.15654 | 10900 ft | 309 kts | 356° |
| 2026-05-04 20:50 | 59.15654 | 18.15906 | 10648 ft | 308 kts | 357° |
| 2026-05-04 20:50 | 59.17788 | 18.16395 | 10460 ft | 311 kts | 6° |
| 2026-05-04 20:50 | 59.19900 | 18.17333 | 10286 ft | 312 kts | 7° |
| 2026-05-04 20:51 | 59.21997 | 18.18312 | 10113 ft | 306 kts | 8° |
| 2026-05-04 20:51 | 59.24044 | 18.19269 | 9939 ft | 301 kts | 8° |
| 2026-05-04 20:51 | 59.26077 | 18.20152 | 9738 ft | 298 kts | 5° |
| 2026-05-04 20:51 | 59.28106 | 18.20891 | 9481 ft | 295 kts | 5° |
| 2026-05-04 20:52 | 59.30095 | 18.21590 | 9211 ft | 294 kts | 5° |
| 2026-05-04 20:52 | 59.32100 | 18.22288 | 8941 ft | 292 kts | 5° |
| 2026-05-04 20:52 | 59.32777 | 18.22524 | 8852 ft | 291 kts | 5° |
| 2026-05-04 20:53 | 59.34170 | 18.22915 | 8711 ft | 293 kts | 3° |
| 2026-05-04 20:53 | 59.36169 | 18.23588 | 8424 ft | 289 kts | 6° |
| 2026-05-04 20:53 | 59.38086 | 18.24317 | 8148 ft | 271 kts | 6° |
| 2026-05-04 20:53 | 59.39891 | 18.25026 | 7888 ft | 262 kts | 6° |
| 2026-05-04 20:54 | 59.41665 | 18.25732 | 7514 ft | 257 kts | 6° |
| 2026-05-04 20:54 | 59.43385 | 18.26424 | 7135 ft | 250 kts | 6° |
| 2026-05-04 20:54 | 59.45053 | 18.27093 | 6759 ft | 246 kts | 6° |
| 2026-05-04 20:54 | 59.46726 | 18.27758 | 6384 ft | 245 kts | 6° |
| 2026-05-04 20:55 | 59.48394 | 18.28415 | 6058 ft | 244 kts | 6° |
| 2026-05-04 20:55 | 59.50049 | 18.29073 | 5743 ft | 242 kts | 6° |
| 2026-05-04 20:55 | 59.51701 | 18.29732 | 5415 ft | 242 kts | 6° |
| 2026-05-04 20:55 | 59.53340 | 18.30390 | 5100 ft | 239 kts | 6° |
| 2026-05-04 20:56 | 59.54968 | 18.31051 | 4807 ft | 237 kts | 6° |
| 2026-05-04 20:56 | 59.56565 | 18.31720 | 4579 ft | 230 kts | 5° |
| 2026-05-04 20:56 | 59.58126 | 18.31961 | 4322 ft | 222 kts | 354° |
| 2026-05-04 20:56 | 59.59630 | 18.31958 | 4055 ft | 217 kts | 353° |
| 2026-05-04 20:57 | 59.61128 | 18.31940 | 3791 ft | 214 kts | 353° |
| 2026-05-04 20:57 | 59.62599 | 18.31944 | 3531 ft | 208 kts | 353° |
| 2026-05-04 20:57 | 59.64016 | 18.31972 | 3293 ft | 199 kts | 353° |
| 2026-05-04 20:57 | 59.65349 | 18.31996 | 3056 ft | 182 kts | 348° |
| 2026-05-04 20:58 | 59.66473 | 18.31297 | 2809 ft | 160 kts | 320° |
| 2026-05-04 20:58 | 59.67208 | 18.29843 | 2570 ft | 142 kts | 296° |
| 2026-05-04 20:58 | 59.67638 | 18.28111 | 2500 ft | 141 kts | 291° |
| 2026-05-04 20:58 | 59.68063 | 18.26366 | 2502 ft | 141 kts | 291° |
| 2026-05-04 20:59 | 59.68484 | 18.24647 | 2508 ft | 141 kts | 291° |
| 2026-05-04 20:59 | 59.68912 | 18.22911 | 2509 ft | 141 kts | 291° |
| 2026-05-04 20:59 | 59.69195 | 18.21077 | 2452 ft | 139 kts | 272° |
| 2026-05-04 20:59 | 59.69066 | 18.19173 | 2328 ft | 141 kts | 257° |
| 2026-05-04 21:00 | 59.68830 | 18.17298 | 2161 ft | 140 kts | 258° |
| 2026-05-04 21:00 | 59.68609 | 18.15537 | 1992 ft | 138 kts | 257° |
| 2026-05-04 21:00 | 59.68376 | 18.13676 | 1801 ft | 139 kts | 257° |
| 2026-05-04 21:00 | 59.68144 | 18.11829 | 1627 ft | 138 kts | 257° |
| 2026-05-04 21:01 | 59.67915 | 18.10010 | 1448 ft | 138 kts | 257° |
| 2026-05-04 21:01 | 59.67683 | 18.08165 | 1243 ft | 139 kts | 256° |
| 2026-05-04 21:01 | 59.67450 | 18.06311 | 1053 ft | 139 kts | 256° |
| 2026-05-04 21:01 | 59.67214 | 18.04441 | 843 ft | 139 kts | 255° |
| 2026-05-04 21:02 | 59.66981 | 18.02577 | 646 ft | 141 kts | 255° |
| 2026-05-04 21:02 | 59.66740 | 18.00690 | 462 ft | 141 kts | 254° |
| 2026-05-04 21:02 | 59.66505 | 17.98816 | 263 ft | 139 kts | 254° |
| 2026-05-04 21:02 | 59.66274 | 17.97024 | 139 ft | 125 kts | 254° |
| 2026-05-04 21:03 | 59.66093 | 17.95584 | 124 ft | 79 kts | 256° |
| 2026-05-04 21:03 | 59.66022 | 17.95037 | 121 ft | 24 kts | 257° |
| 2026-05-04 21:03 | 59.65953 | 17.94718 | 121 ft | 27 kts | 236° |
| 2026-05-04 21:03 | 59.65820 | 17.94429 | 119 ft | 28 kts | 224° |
| 2026-05-04 21:04 | 59.65790 | 17.94372 | 120 ft | 28 kts | 223° |